createdAt,value
2017-12-20T00:04:37.957Z,18.40
2017-12-20T00:10:41.424Z,17.50
2017-12-20T00:16:44.925Z,18.10
2017-12-20T00:22:48.495Z,20.90
2017-12-20T00:28:52.622Z,20.67
2017-12-20T00:34:56.342Z,19.43
2017-12-20T00:40:59.799Z,20.00
2017-12-20T00:47:03.393Z,20.33
2017-12-20T00:53:06.918Z,17.80
2017-12-20T00:59:11.279Z,19.23
2017-12-20T01:05:14.761Z,17.80
2017-12-20T01:11:18.993Z,19.33
2017-12-20T01:17:22.502Z,17.87
2017-12-20T01:23:26.056Z,20.47
2017-12-20T01:29:30.299Z,18.90
2017-12-20T01:35:33.804Z,19.40
2017-12-20T01:41:37.276Z,19.60
2017-12-20T01:47:40.870Z,21.63
2017-12-20T01:53:45.174Z,20.80
2017-12-20T01:59:48.684Z,18.13
2017-12-20T02:05:52.431Z,17.53
2017-12-20T02:11:55.970Z,16.50
2017-12-20T02:17:59.484Z,16.27
2017-12-20T02:24:03.766Z,16.50
2017-12-20T02:30:07.236Z,15.10
2017-12-20T02:36:11.654Z,14.20
2017-12-20T02:42:16.187Z,15.00
2017-12-20T02:48:19.690Z,14.47
2017-12-20T02:54:23.526Z,14.13
2017-12-20T03:00:27.869Z,15.40
2017-12-20T03:06:31.458Z,15.70
2017-12-20T03:12:35.221Z,15.27
2017-12-20T03:18:38.835Z,16.17
2017-12-20T03:24:42.480Z,15.87
2017-12-20T03:30:46.964Z,17.80
2017-12-20T03:36:50.601Z,16.90
2017-12-20T03:42:54.421Z,16.27
2017-12-20T03:48:57.912Z,16.63
2017-12-20T03:55:01.456Z,17.10
2017-12-20T04:01:04.988Z,18.30
2017-12-20T04:07:08.865Z,17.87
2017-12-20T04:13:12.478Z,16.80
2017-12-20T04:19:16.419Z,16.00
2017-12-20T04:25:20.649Z,16.37
2017-12-20T04:31:24.313Z,16.57
2017-12-20T04:37:27.825Z,15.97
2017-12-20T04:43:31.498Z,14.60
2017-12-20T04:49:35.486Z,17.90
2017-12-20T04:55:39.000Z,16.90
2017-12-20T05:01:42.508Z,16.67
2017-12-20T05:07:46.076Z,18.07
2017-12-20T05:13:49.785Z,18.20
2017-12-20T05:19:53.471Z,17.70
2017-12-20T05:25:57.111Z,18.60
2017-12-20T05:32:00.637Z,16.23
2017-12-20T05:38:04.154Z,18.50
2017-12-20T05:44:07.659Z,18.23
2017-12-20T05:50:11.264Z,17.17
2017-12-20T05:56:14.904Z,17.13
2017-12-20T06:02:18.490Z,15.80
2017-12-20T06:08:22.034Z,15.53
2017-12-20T06:14:25.594Z,15.27
2017-12-20T06:20:29.201Z,14.43
2017-12-20T06:26:32.726Z,13.63
2017-12-20T06:32:36.294Z,14.30
2017-12-20T06:38:39.799Z,14.43
2017-12-20T06:44:43.275Z,13.30
2017-12-20T06:50:47.650Z,12.67
2017-12-20T06:56:52.208Z,23.40
2017-12-20T07:02:56.580Z,14.37
2017-12-20T07:09:00.057Z,17.60
2017-12-20T07:15:04.317Z,16.93
2017-12-20T07:21:07.807Z,18.33
2017-12-20T07:27:11.373Z,18.47
2017-12-20T07:33:14.834Z,17.50
2017-12-20T07:39:18.327Z,16.93
2017-12-20T07:45:21.806Z,16.60
2017-12-20T07:51:26.076Z,16.90
2017-12-20T07:57:30.361Z,17.00
2017-12-20T08:03:33.844Z,16.27
2017-12-20T08:09:37.449Z,16.70
2017-12-20T08:15:41.097Z,14.37
2017-12-20T08:21:44.599Z,14.97
2017-12-20T08:27:48.091Z,13.90
2017-12-20T08:33:51.740Z,12.93
2017-12-20T08:39:55.256Z,12.70
2017-12-20T08:45:58.751Z,9.33
2017-12-20T08:52:02.226Z,10.20
2017-12-20T08:58:05.718Z,10.03
2017-12-20T09:04:09.292Z,9.97
2017-12-20T09:10:12.816Z,11.60
2017-12-20T09:16:16.580Z,12.10
2017-12-20T09:22:20.140Z,12.93
2017-12-20T09:28:23.830Z,13.33
2017-12-20T09:34:27.352Z,13.53
2017-12-20T09:40:30.978Z,11.63
2017-12-20T09:46:34.500Z,11.77
2017-12-20T09:52:38.036Z,12.60
2017-12-20T09:58:41.619Z,13.40
2017-12-20T10:04:45.130Z,11.50
2017-12-20T10:10:48.644Z,12.33
2017-12-20T10:16:53.502Z,10.03
2017-12-20T10:22:56.982Z,8.90
2017-12-20T10:29:00.490Z,9.83
2017-12-20T10:35:04.086Z,9.17
2017-12-20T10:41:07.551Z,9.13
2017-12-20T10:47:11.034Z,11.17
2017-12-20T10:53:14.547Z,14.30
2017-12-20T10:59:18.044Z,8.00
2017-12-20T11:05:21.625Z,12.17
2017-12-20T11:11:25.249Z,10.97
2017-12-20T11:17:29.582Z,9.30
2017-12-20T11:23:33.035Z,9.80
2017-12-20T11:29:36.575Z,9.47
2017-12-20T11:35:40.175Z,10.17
2017-12-20T11:41:43.844Z,11.43
2017-12-20T11:47:47.394Z,11.27
2017-12-20T11:53:51.474Z,11.47
2017-12-20T11:59:55.312Z,14.73
2017-12-20T12:05:58.916Z,10.73
2017-12-20T12:12:02.570Z,11.73
2017-12-20T12:18:06.042Z,10.17
2017-12-20T12:24:09.515Z,10.57
2017-12-20T12:30:13.019Z,9.87
2017-12-20T12:36:16.751Z,9.10
2017-12-20T12:42:21.000Z,7.73
2017-12-20T12:48:24.612Z,8.27
2017-12-20T12:54:28.097Z,9.30
2017-12-20T13:00:31.585Z,9.13
2017-12-20T13:06:35.900Z,10.03
2017-12-20T13:12:39.386Z,8.87
2017-12-20T13:18:42.975Z,7.93
2017-12-20T13:24:46.617Z,7.93
2017-12-20T13:30:50.115Z,8.17
2017-12-20T13:36:53.735Z,9.20
2017-12-20T13:42:57.984Z,8.97
2017-12-20T13:49:01.489Z,8.83
2017-12-20T13:55:05.007Z,9.10
2017-12-20T14:01:08.496Z,9.30
2017-12-20T14:07:12.030Z,8.90
2017-12-20T14:13:16.277Z,8.40
2017-12-20T14:19:19.755Z,8.60
2017-12-20T14:25:24.246Z,8.00
2017-12-20T14:31:27.737Z,9.13
2017-12-20T14:37:31.242Z,8.67
2017-12-20T14:43:35.480Z,8.77
2017-12-20T14:49:38.968Z,8.50
2017-12-20T14:55:43.240Z,8.90
2017-12-20T15:01:47.488Z,8.77
2017-12-20T15:07:51.303Z,9.20
2017-12-20T15:13:54.816Z,8.20
2017-12-20T15:19:59.081Z,9.93
2017-12-20T15:26:02.586Z,10.00
2017-12-20T15:32:06.379Z,10.00
2017-12-20T15:38:10.155Z,10.60
2017-12-20T15:44:13.758Z,10.80
2017-12-20T15:50:17.356Z,10.17
2017-12-20T15:56:21.107Z,10.90
2017-12-20T16:02:24.610Z,10.23
2017-12-20T16:08:28.084Z,9.73
2017-12-20T16:14:31.571Z,9.70
2017-12-20T16:20:35.087Z,8.80
2017-12-20T16:26:38.615Z,9.50
2017-12-20T16:32:42.188Z,8.10
2017-12-20T16:38:45.745Z,9.07
2017-12-20T16:44:49.235Z,9.00
2017-12-20T16:50:53.766Z,9.10
2017-12-20T16:56:57.330Z,9.27
2017-12-20T17:03:00.816Z,9.43
2017-12-20T17:09:04.280Z,10.50
2017-12-20T17:15:07.826Z,14.33
2017-12-20T17:21:11.334Z,10.60
2017-12-20T17:27:15.569Z,9.67
2017-12-20T17:33:19.105Z,10.87
2017-12-20T17:39:22.707Z,8.53
2017-12-20T17:45:26.947Z,10.27
2017-12-20T17:51:30.732Z,8.57
2017-12-20T17:57:34.208Z,10.50
2017-12-20T18:03:38.581Z,9.23
2017-12-20T18:09:42.845Z,9.43
2017-12-20T18:15:46.363Z,9.77
2017-12-20T18:21:49.900Z,10.53
2017-12-20T18:27:53.473Z,9.40
2017-12-20T18:33:57.020Z,10.40
2017-12-20T18:40:00.521Z,8.77
2017-12-20T18:46:04.770Z,8.50
2017-12-20T18:52:08.302Z,8.43
2017-12-20T18:58:11.969Z,7.37
2017-12-20T19:04:16.452Z,8.17
2017-12-20T19:10:19.974Z,8.00
2017-12-20T19:16:23.884Z,8.00
2017-12-20T19:22:27.418Z,6.97
2017-12-20T19:28:31.019Z,6.50
2017-12-20T19:34:34.655Z,7.07
2017-12-20T19:40:38.190Z,7.30
2017-12-20T19:46:41.704Z,7.50
2017-12-20T19:52:45.324Z,7.63
2017-12-20T19:58:49.867Z,7.23
2017-12-20T20:04:53.615Z,8.07
2017-12-20T20:10:57.953Z,7.63
2017-12-20T20:17:02.609Z,8.33
2017-12-20T20:23:06.094Z,8.07
2017-12-20T20:29:09.571Z,7.83
2017-12-20T20:35:13.051Z,8.80
2017-12-20T20:41:16.757Z,7.70
2017-12-20T20:47:21.152Z,9.53
2017-12-20T20:53:25.225Z,7.07
2017-12-20T20:59:28.767Z,7.20
2017-12-20T21:05:32.321Z,7.13
2017-12-20T21:11:36.110Z,7.50
2017-12-20T21:17:39.586Z,8.40
2017-12-20T21:23:43.095Z,10.33
2017-12-20T21:29:46.626Z,7.90
2017-12-20T21:35:50.973Z,7.43
2017-12-20T21:41:54.528Z,7.43
2017-12-20T21:47:58.768Z,7.20
2017-12-20T21:54:02.258Z,7.10
2017-12-20T22:00:05.760Z,7.07
2017-12-20T22:06:09.310Z,8.03
2017-12-20T22:12:12.833Z,7.47
2017-12-20T22:18:17.112Z,6.70
2017-12-20T22:24:21.431Z,6.93
2017-12-20T22:30:26.904Z,7.50
2017-12-20T22:36:30.425Z,7.87
2017-12-20T22:42:33.926Z,8.00
2017-12-20T22:48:37.411Z,8.83
2017-12-20T22:54:40.943Z,8.07
2017-12-20T23:00:44.415Z,8.23
2017-12-20T23:06:47.909Z,8.80
2017-12-20T23:12:51.529Z,8.80
2017-12-20T23:18:55.018Z,8.13
2017-12-20T23:24:59.283Z,9.20
2017-12-20T23:31:02.995Z,8.70
2017-12-20T23:37:06.716Z,9.13
2017-12-20T23:43:10.342Z,8.70
2017-12-20T23:49:13.836Z,9.50
2017-12-20T23:55:17.324Z,9.40
